Ahmed Al-Ahmadi

Chefscout - Al-Hilal
20 Feb 2028
Sonntag
Verarbeitung

Persönlichkeit

Anpassungsfähigkeit (6) Ehrgeiz (11) Kontroverse (1) Loyalität (14) Druck (12) Professionalität (20) Fairness (5) Temperament (6)

Profil

Trainerstil Demokratisch
Lizenz Kontinentale A
Entschlossenheit 11
Menschenführung 10
Motivation 5
Disziplin 10
Arbeitszufriedenheit
65%
Ermüdung
0%
Rolle Chefscout
Gehalt 15.3K p/W
Vertrag 14.03.2029

Leistung

Verhalten Gut
Trainingseffektivität
26%
Spielerentwicklung
55%
Verletzungsprävention
55%
Taktische Umsetzung
45%

Letzte Ereignisse

Spieler begutachtet 14T her
Nahm an einer Scouting-Besprechung teil 14T her
Empfahl ein Transferziel 14T her
Empfahl ein Transferziel 14T her
Empfahl ein Transferziel 14T her
Empfahl ein Transferziel 14T her
Legte dem Vorstand ein Dossier vor 21T her
Spiel beobachtet 21T her

Aktuell beobachtet

52
Spieler Verein Status Fähigkeit Vertrauen Beobachtet Zuletzt beobachtet Letzte Stimme
Matija Gluščević Al-Ettifaq Aktiv 116 / 124 48% 1 31.01.2028 -
Alani Maritimo Aktiv 112 / 110 40% 1 31.01.2028 -
Jonás Ravano Colón Aktiv 105 / 97 40% 1 31.01.2028 -
Liam Daði Jeffs IBV Aktiv 110 / 104 40% 1 28.01.2028 -
Mamadou Doumbia Middlesbrough Aktiv 148 / 125 40% 1 28.01.2028 -
Justin Clarke Everton Aktiv 102 / 107 40% 1 27.01.2028 -
Mateo Peralta Lanús Aktiv 114 / 110 40% 1 27.01.2028 -
Dilan Godoy Vélez Aktiv 114 / 112 40% 2 23.01.2028 -
Sidiki Chérif Coventry City Aktiv 151 / 147 40% 1 22.01.2028 -
Errol Mundle-Smith Swindon Town Aktiv 81 / 100 40% 1 21.01.2028 -
Francesco Camarda AC Milan Aktiv 147 / 145 40% 1 21.01.2028 -
Martín Soto Huracán Aktiv 87 / 107 40% 1 20.01.2028 -
Luca Arfaras Estudiantes Aktiv 92 / 105 40% 1 20.01.2028 -
Uriël Van Aalst Willem II Aktiv 112 / 127 40% 1 19.01.2028 -
Pepê Fermino Santos Aktiv 92 / 105 40% 1 19.01.2028 -
Youssoupha Niang Köln Aktiv 106 / 126 40% 1 18.01.2028 -
Daniel Banjaqui Benfica Aktiv 143 / 124 40% 3 10.01.2028 -
Pablo Aguiar Lanús Aktiv 91 / 115 40% 1 10.01.2028 -
Louis Page West Ham United Aktiv 131 / 136 40% 3 04.01.2028 -
Emmanuel Dzigbah Cukaricki Verhandlung 122 / 112 40% 1 04.01.2028 -
Keita Kosugi Eintracht Frankfurt Aktiv 131 / 138 40% 1 03.01.2028 -
Alexis Vossah Stade Brestois Aktiv 126 / 127 40% 1 03.01.2028 -
Andrés Cuenca Como Aktiv 97 / 112 40% 1 03.01.2028 -
Matvii Panchenko Metalist Aktiv 109 / 122 40% 1 03.01.2028 -
Leo Cristaldo Vélez Aktiv 102 / 114 40% 1 02.01.2028 -
Andrej Bačanin Vaduz Aktiv 113 / 113 40% 1 02.01.2028 -
Davit Volkovi Groningen Aktiv 116 / 116 66% 1 01.01.2028 Befürworten
Martins Júnior Qarabag Aktiv 112 / 112 66% 1 01.01.2028 Befürworten
Brayan Gil Olympique de Marseille Aktiv 121 / 122 66% 1 01.01.2028 Befürworten
Elkin Rivero Atletico Nacional Aktiv 102 / 112 40% 1 31.08.2027 -
Dmitry Pestryakov Akron Aktiv 101 / 128 40% 1 25.08.2027 -
Ronan Kpakio West Bromwich Albion Aktiv 124 / 135 40% 1 23.08.2027 -
Mateo Caballero Nacional Aktiv 90 / 112 40% 1 23.08.2027 -
Gustavo Albarracín Alavés Aktiv 111 / 112 40% 1 16.08.2027 -
Peter Olayinka Al-Wehda Aktiv 131 / 118 40% 1 02.08.2027 -
Mohammad Javad Mohammadi Zob Ahan Aktiv 120 / 112 40% 1 20.07.2027 -
Elias Baum Eintracht Frankfurt Aktiv 140 / 142 40% 2 02.07.2027 -
Mattia Mannini Juve Stabia Aktiv 101 / 117 40% 1 02.07.2027 -
Miguel Figueiredo Benfica Aktiv 90 / 130 40% 1 30.06.2027 -
Marvin Akahomen Basel Aktiv 85 / 114 40% 1 30.06.2027 -
Amine Boukamir Westerlo Aktiv 114 / 103 40% 1 29.06.2027 -
Joe Johnson Luton Town Aktiv 111 / 109 40% 1 27.06.2027 -
Zach Abbott Nottingham Forest Aktiv 120 / 130 40% 1 26.06.2027 -
Martim Cunha Porto Aktiv 91 / 102 40% 1 04.06.2027 -
Omar Al-Somah Aktiv 121 / 121 67% 1 01.06.2027 Befürworten
Chris Rigg Bournemouth Aktiv 129 / 133 40% 1 25.01.2027 -
Jason Al-Fayha Aktiv 131 / 130 44% 1 18.01.2027 -
Josh King Fulham Aktiv 155 / 150 40% 2 12.01.2027 -
Honest Ahanor Udinese Aktiv 135 / 133 40% 1 05.01.2027 -
Mahir Ozobic Instituto Aktiv 115 / 116 66% 1 01.01.2027 Befürworten
Khalid Al-Ghannam Al-Ettifaq Aktiv 111 / 125 44% 1 24.08.2026 -
Rodrigo Villalba Libertad Aktiv 89 / 105 40% 1 03.08.2026 -